2022年10月1日

时间 代码 天气 温度 能见度 天花板 METAR/SPECI
07:21
L
3 °C ⅜ mi 200 ft 300° 300° 4 kt METAR CYBW 011321Z AUTO 30004KT 3/8SM R35/2800FT/N FG VV002 03/03 A3026 RMK SLP289
07:18
L
3 °C ¾ mi 200 ft 300° 300° 4 kt METAR CYBW 011318Z AUTO 30004KT 3/4SM R35/2400V3500FT/ BR VV002 03/03 A3026 RMK SLP290
07:11
L
2 °C 1 mi 300 ft 310° 310° 4 kt METAR CYBW 011311Z AUTO 31004KT 1SM R35/2600FT/N BR BKN003 02/02 A3026 RMK SLP291
07:00
L
3 °C ⅜ mi 300 ft 310° 310° 5 kt METAR CYBW 011300Z AUTO 31005KT 3/8SM R35/4500VP6000FT/ FG VV003 03/03 A3026 RMK SLP274
06:27
L
3 °C ⅜ mi 300 ft 310° 310° 4 kt METAR CYBW 011227Z AUTO 31004KT 3/8SM R35/4000FT/U FG VV003 03/03 A3027 RMK SLP292
06:00
L
4 °C ⅜ mi 200 ft 300° 300° 4 kt METAR CYBW 011200Z AUTO 30004KT 3/8SM R35/3500FT/D FG VV002 04/04 A3027 RMK SLP273
05:00
L
3 °C ¼ mi 200 ft 320° 320° 5 kt METAR CYBW 011100Z AUTO 32005KT 1/4SM R35/2200FT/N FG VV002 03/03 A3027 RMK SLP271
04:22
L
4 °C ¼ mi 200 ft 310° 310° 5 kt METAR CYBW 011022Z AUTO 31005KT 1/4SM R35/3000FT/N FG VV002 04/04 A3026 RMK SLP288
04:09
L
3 °C ¼ mi 300 ft 310° 310° 4 kt METAR CYBW 011009Z AUTO 31004KT 1/4SM R35/2800FT/N FG VV003 03/03 A3026 RMK SLP289
03:43
L
4 °C ¼ mi 300 ft 310° 310° 3 kt METAR CYBW 010943Z AUTO 31003KT 1/4SM R35/2600VP6000FT/ FG BKN003 04/04 A3027 RMK SLP289
03:12
L
5 °C ⅜ mi - 320° 320° 5 kt METAR CYBW 010912Z AUTO 32005KT 3/8SM R35/3000VP6000FT/ FG CLR 05/05 A3027 RMK SLP287
03:07
L
5 °C ¾ mi - 320° 320° 5 kt METAR CYBW 010907Z AUTO 32005KT 3/4SM R35/2400V6000FT/ BR CLR 05/05 A3027 RMK SLP287
02:02
I
6 °C 2¼ mi - 330° 330° 6 kt METAR CYBW 010802Z AUTO 33006KT 2 1/4SM BR CLR 06/06 A3028 RMK SLP287
02:00
I
6 °C 3 mi - 330° 330° 6 kt METAR CYBW 010800Z AUTO 33006KT 3SM BR CLR 06/06 A3028 RMK SLP269
01:00
M
7 °C 4 mi - Var Var 2 kt METAR CYBW 010700Z AUTO VRB02KT 4SM BR CLR 07/07 A3027 RMK SLP270
00:39
I
6 °C 2¼ mi - 330° 330° 4 kt METAR CYBW 010639Z AUTO 33004KT 2 1/4SM BR CLR 06/05 A3028 RMK SLP288
00:30
I
6 °C 3 mi - 360° 360° 3 kt METAR CYBW 010630Z AUTO 36003KT 300V020 3SM BR CLR 06/06 A3028 RMK SLP284
00:00
V
6 °C 6 mi - Var Var 2 kt METAR CYBW 010600Z AUTO VRB02KT 6SM BR CLR 06/06 A3027 RMK SLP269

2022年9月30日

时间 代码 天气 温度 能见度 天花板 METAR/SPECI
23:00
V
8 °C 9 mi - 290° 290° 4 kt METAR CYBW 010500Z AUTO 29004KT 9SM CLR 08/07 A3028 RMK SLP269
22:00
V
8 °C 9 mi - 260° 260° 2 kt METAR CYBW 010400Z AUTO 26002KT 9SM FEW091 08/07 A3026 RMK SLP266
21:00
V
9 °C 9 mi 9.100 ft 360° 360° 4 kt METAR CYBW 010300Z AUTO 36004KT 9SM BKN091 09/08 A3026 RMK SLP267
20:00
V
11 °C 9 mi - 010° 010° 6 kt METAR CYBW 010200Z AUTO 01006KT 9SM CLR 11/08 A3024 RMK SLP257 DENSITY ALT 4100FT
19:00
V
13 °C 9 mi - 040° 040° 6 kt METAR CYBW 010100Z AUTO 04006KT 9SM CLR 13/09 A3022 RMK SLP247 DENSITY ALT 4300FT
18:00
V
15 °C 9 mi - 010° 010° 7 kt METAR CYBW 010000Z AUTO 01007KT 9SM CLR 15/09 A3020 RMK SLP237 DENSITY ALT 4600FT
17:00
V
16 °C 9 mi 11.000 ft 010° 010° 11 - 17 kt METAR CYBW 302300Z AUTO 01011G17KT 9SM OVC110 16/09 A3020 RMK SLP237 DENSITY ALT 4600FT
16:00
V
16 °C 9 mi 10.000 ft 020° 020° 14 kt METAR CYBW 302200Z AUTO 02014KT 9SM BKN100 16/09 A3020 RMK SLP234 DENSITY ALT 4700FT
15:00
V
17 °C 9 mi - 350° 350° 12 - 18 kt METAR CYBW 302100Z AUTO 35012G18KT 9SM FEW033 17/09 A3019 RMK SLP229 DENSITY ALT 4800FT
14:00
V
17 °C 9 mi - 360° 360° 10 - 15 kt METAR CYBW 302000Z AUTO 36010G15KT 9SM FEW030 SCT120 17/09 A3020 RMK SLP233 DENSITY ALT 4800FT
13:00
V
15 °C 9 mi 11.000 ft 340° 340° 12 kt METAR CYBW 301900Z AUTO 34012KT 9SM OVC110 15/09 A3020 RMK SLP238 DENSITY ALT 4500FT
12:00
V
14 °C 9 mi 11.000 ft 340° 340° 16 - 22 kt METAR CYBW 301800Z AUTO 34016G22KT 9SM OVC110 14/08 A3019 RMK SLP234 DENSITY ALT 4500FT
11:00
V
15 °C 9 mi 9.600 ft 340° 340° 18 - 25 kt METAR CYBW 301700Z AUTO 34018G25KT 9SM BKN096 15/08 A3018 RMK SLP230 DENSITY ALT 4600FT
10:00
V
14 °C 9 mi 11.000 ft 340° 340° 13 - 18 kt METAR CYBW 301600Z AUTO 34013G18KT 9SM SCT091 BKN110 14/08 A3019 RMK SLP234 DENSITY ALT 4400FT
09:00
V
11 °C 9 mi 15.000 ft 320° 320° 7 kt METAR CYBW 301500Z AUTO 32007KT 9SM OVC150 11/08 A3018 RMK SLP234 DENSITY ALT 4200FT
08:00
V
10 °C 9 mi 13.000 ft 320° 320° 5 kt METAR CYBW 301400Z AUTO 32005KT 9SM OVC130 10/07 A3017 RMK SLP234 DENSITY ALT 4000FT
07:00
V
11 °C 9 mi 13.000 ft 330° 330° 11 - 16 kt METAR CYBW 301300Z AUTO 33011G16KT 9SM SCT096 OVC130 11/07 A3016 RMK SLP226 DENSITY ALT 4100FT
06:00
V
11 °C 9 mi 9.600 ft 330° 330° 14 kt METAR CYBW 301200Z AUTO 33014KT 9SM BKN096 OVC120 11/07 A3015 RMK PCPN 0.5MM PAST HR SLP220 DENSITY ALT 4200FT
05:54
V
11 °C 9 mi 10.000 ft 330° 330° 12 - 17 kt METAR CYBW 301154Z AUTO 33012G17KT 9SM BKN100 OVC120 11/07 A3014 RMK SLP223 DENSITY ALT 4200FT
05:34
V
11 °C 9 mi 10.000 ft 330° 330° 12 - 17 kt METAR CYBW 301134Z AUTO 33012G17KT 9SM -RA BKN100 OVC120 11/07 A3014 RMK SLP222 DENSITY ALT 4200FT
05:00
V
11 °C 9 mi 12.000 ft 330° 330° 13 - 20 kt METAR CYBW 301100Z AUTO 33013G20KT 9SM SCT100 OVC120 11/07 A3014 RMK SLP214 DENSITY ALT 4200FT
04:00
V
11 °C 9 mi 12.000 ft 330° 330° 11 - 16 kt METAR CYBW 301000Z AUTO 33011G16KT 9SM OVC120 11/07 A3014 RMK SLP215 DENSITY ALT 4200FT
03:00
V
11 °C 9 mi 12.000 ft 330° 330° 9 kt METAR CYBW 300900Z AUTO 33009KT 9SM OVC120 11/07 A3014 RMK SLP215 DENSITY ALT 4200FT
02:00
V
11 °C 9 mi 12.000 ft 320° 320° 11 kt METAR CYBW 300800Z AUTO 32011KT 9SM OVC120 11/07 A3013 RMK SLP214 DENSITY ALT 4200FT
01:00
V
12 °C 9 mi 11.000 ft 320° 320° 13 kt METAR CYBW 300700Z AUTO 32013KT 9SM OVC110 12/08 A3013 RMK SLP216 DENSITY ALT 4300FT
00:00
V
12 °C 9 mi 13.000 ft 320° 320° 13 kt METAR CYBW 300600Z AUTO 32013KT 9SM SCT110 OVC130 12/08 A3011 RMK SLP208 DENSITY ALT 4300FT

2022年9月29日

时间 代码 天气 温度 能见度 天花板 METAR/SPECI
23:00
V
11 °C 9 mi 14.000 ft 320° 320° 12 kt METAR CYBW 300500Z AUTO 32012KT 9SM BKN140 11/08 A3011 RMK SLP210 DENSITY ALT 4200FT
22:00
V
11 °C 9 mi - 310° 310° 11 - 17 kt METAR CYBW 300400Z AUTO 31011G17KT 9SM CLR 11/08 A3011 RMK SLP206 DENSITY ALT 4200FT
21:00
V
12 °C 9 mi 8.600 ft 310° 310° 10 kt METAR CYBW 300300Z AUTO 31010KT 9SM OVC086 12/08 A3010 RMK SLP202 DENSITY ALT 4300FT
20:00
V
11 °C 9 mi - 320° 320° 11 kt METAR CYBW 300200Z AUTO 32011KT 9SM SCT086 11/08 A3009 RMK SLP202 DENSITY ALT 4300FT
19:00
V
13 °C 9 mi - 330° 330° 13 - 20 kt METAR CYBW 300100Z AUTO 33013G20KT 9SM FEW086 13/08 A3006 RMK SLP186 DENSITY ALT 4500FT
18:00
V
14 °C 9 mi 22.000 ft 340° 340° 11 kt METAR CYBW 300000Z AUTO 34011KT 9SM FEW096 BKN220 14/08 A3004 RMK SLP180 DENSITY ALT 4600FT
17:00
V
15 °C 9 mi 8.600 ft 350° 350° 9 kt METAR CYBW 292300Z AUTO 35009KT 9SM BKN086 OVC100 15/10 A3003 RMK SLP183 DENSITY ALT 4800FT
16:00
V
15 °C 9 mi 8.100 ft 320° 320° 8 kt METAR CYBW 292200Z AUTO 32008KT 9SM OVC081 15/10 A3001 RMK SLP176 DENSITY ALT 4800FT
15:00
V
15 °C 9 mi 8.600 ft 310° 310° 15 - 21 kt METAR CYBW 292100Z AUTO 31015G21KT 9SM BKN086 OVC110 15/10 A3000 RMK SLP168 DENSITY ALT 4800FT
14:00
V
13 °C 9 mi 10.000 ft 310° 310° 15 - 20 kt METAR CYBW 292000Z AUTO 31015G20KT 9SM BKN100 BKN140 BKN210 13/10 A3001 RMK SLP177 DENSITY ALT 4600FT
13:00
V
11 °C 9 mi 8.800 ft 310° 310° 14 kt METAR CYBW 291900Z AUTO 31014KT 9SM SCT076 OVC088 11/10 A3002 RMK SLP177 DENSITY ALT 4400FT
12:57
V
11 °C 9 mi 8.900 ft 310° 310° 14 kt METAR CYBW 291857Z AUTO 31014KT 9SM SCT071 OVC089 11/09 A3002 RMK SLP181 DENSITY ALT 4300FT
12:20
V
12 °C 9 mi 6.600 ft 270° 270° 8 kt METAR CYBW 291820Z AUTO 27008KT 9SM -RA OVC066 12/10 A3005 RMK PRESRR SLP188 DENSITY ALT 4400FT
12:18
V
12 °C 9 mi 7.100 ft 260° 260° 8 kt METAR CYBW 291818Z AUTO 26008KT 9SM OVC071 12/10 A3005 RMK PRESRR SLP187 DENSITY ALT 4400FT
12:00
V
12 °C 9 mi 7.100 ft 280° 280° 9 kt METAR CYBW 291800Z AUTO 28009KT 9SM -RA OVC071 12/10 A3003 RMK PCPN 0.8MM PAST HR SLP176 DENSITY ALT 4500FT
11:03
V
12 °C 9 mi 8.600 ft 330° 330° 7 kt METAR CYBW 291703Z AUTO 33007KT 9SM -RA OVC086 12/08 A3000 RMK SLP169 DENSITY ALT 4500FT
11:00
V
13 °C 9 mi 8.600 ft 330° 330° 7 kt METAR CYBW 291700Z AUTO 33007KT 9SM OVC086 13/08 A3000 RMK SLP168 DENSITY ALT 4500FT
10:47
V
12 °C 9 mi 9.100 ft 360° 360° 7 kt METAR CYBW 291647Z AUTO 36007KT 9SM OVC091 12/09 A3000 RMK SLP169 DENSITY ALT 4500FT
10:00
V
14 °C 9 mi 7.600 ft Var Var 4 kt METAR CYBW 291600Z AUTO VRB04KT 9SM -RA BKN076 OVC088 14/07 A2999 RMK SLP165 DENSITY ALT 4600FT
09:56
V
14 °C 9 mi 8.100 ft Var Var 11 kt METAR CYBW 291556Z AUTO VRB11KT 9SM -RA OVC081 14/07 A2999 RMK PRESRR SLP162 DENSITY ALT 4700FT
09:00
V
14 °C 9 mi 13.000 ft 320° 320° 7 kt METAR CYBW 291500Z AUTO 32007KT 9SM SCT100 OVC130 14/06 A2994 RMK SLP143 DENSITY ALT 4800FT
08:00
V
12 °C 9 mi 11.000 ft 320° 320° 8 kt METAR CYBW 291400Z AUTO 32008KT 9SM BKN110 OVC130 12/07 A2993 RMK SLP138 DENSITY ALT 4500FT
较旧的数据

我们和第三方通过cookies跟踪您在我们网站上的上网行为。如果您继续,我们认为您同意我们的cookie政策。 了解更多